sensor_id;sensor_type;location;lat;lon;timestamp;P1;durP1;ratioP1;P2;durP2;ratioP2
37425;SDS011;23285;50.180;7.036;2023-04-01T00:00:34;6.93;;;2.33;;
37425;SDS011;23285;50.180;7.036;2023-04-01T00:03:24;4.73;;;2.00;;
37425;SDS011;23285;50.180;7.036;2023-04-01T00:06:12;6.23;;;1.90;;
37425;SDS011;23285;50.180;7.036;2023-04-01T00:08:59;7.17;;;1.80;;
37425;SDS011;23285;50.180;7.036;2023-04-01T00:11:45;7.17;;;2.20;;
37425;SDS011;23285;50.180;7.036;2023-04-01T00:14:31;5.03;;;1.70;;
37425;SDS011;23285;50.180;7.036;2023-04-01T00:17:19;6.90;;;1.83;;
37425;SDS011;23285;50.180;7.036;2023-04-01T00:20:07;6.17;;;2.30;;
37425;SDS011;23285;50.180;7.036;2023-04-01T00:22:55;12.00;;;2.50;;
37425;SDS011;23285;50.180;7.036;2023-04-01T00:25:41;4.40;;;1.67;;
37425;SDS011;23285;50.180;7.036;2023-04-01T00:28:28;7.43;;;2.00;;
37425;SDS011;23285;50.180;7.036;2023-04-01T00:31:14;5.13;;;1.80;;
37425;SDS011;23285;50.180;7.036;2023-04-01T00:34:01;4.67;;;1.67;;
37425;SDS011;23285;50.180;7.036;2023-04-01T00:36:49;6.13;;;1.67;;
37425;SDS011;23285;50.180;7.036;2023-04-01T00:39:36;5.57;;;1.90;;
37425;SDS011;23285;50.180;7.036;2023-04-01T00:42:22;9.07;;;1.83;;
37425;SDS011;23285;50.180;7.036;2023-04-01T00:48:12;5.47;;;1.60;;
37425;SDS011;23285;50.180;7.036;2023-04-01T00:51:01;9.10;;;2.20;;
37425;SDS011;23285;50.180;7.036;2023-04-01T00:53:52;8.40;;;1.87;;
37425;SDS011;23285;50.180;7.036;2023-04-01T00:56:41;8.13;;;1.97;;
37425;SDS011;23285;50.180;7.036;2023-04-01T00:59:35;6.50;;;1.80;;
37425;SDS011;23285;50.180;7.036;2023-04-01T01:02:26;8.30;;;2.00;;
37425;SDS011;23285;50.180;7.036;2023-04-01T01:05:12;6.93;;;1.50;;
37425;SDS011;23285;50.180;7.036;2023-04-01T01:08:01;3.30;;;1.30;;
37425;SDS011;23285;50.180;7.036;2023-04-01T01:10:50;9.33;;;1.60;;
37425;SDS011;23285;50.180;7.036;2023-04-01T01:13:39;5.77;;;1.67;;
37425;SDS011;23285;50.180;7.036;2023-04-01T01:16:37;5.53;;;1.60;;
37425;SDS011;23285;50.180;7.036;2023-04-01T01:22:42;7.87;;;1.73;;
37425;SDS011;23285;50.180;7.036;2023-04-01T01:25:46;4.73;;;1.60;;
37425;SDS011;23285;50.180;7.036;2023-04-01T01:28:36;4.47;;;1.40;;
37425;SDS011;23285;50.180;7.036;2023-04-01T01:31:39;8.27;;;1.87;;
37425;SDS011;23285;50.180;7.036;2023-04-01T01:34:31;5.40;;;1.70;;
37425;SDS011;23285;50.180;7.036;2023-04-01T01:37:24;7.27;;;1.70;;
37425;SDS011;23285;50.180;7.036;2023-04-01T01:40:11;4.33;;;1.30;;
37425;SDS011;23285;50.180;7.036;2023-04-01T01:42:59;5.20;;;1.53;;
37425;SDS011;23285;50.180;7.036;2023-04-01T01:45:47;5.63;;;1.90;;
37425;SDS011;23285;50.180;7.036;2023-04-01T01:48:36;7.77;;;1.70;;
37425;SDS011;23285;50.180;7.036;2023-04-01T01:51:23;5.27;;;1.80;;
37425;SDS011;23285;50.180;7.036;2023-04-01T01:54:14;4.67;;;1.60;;
37425;SDS011;23285;50.180;7.036;2023-04-01T01:57:02;8.27;;;1.60;;
37425;SDS011;23285;50.180;7.036;2023-04-01T01:59:54;6.00;;;1.50;;
37425;SDS011;23285;50.180;7.036;2023-04-01T02:02:46;6.03;;;2.03;;
37425;SDS011;23285;50.180;7.036;2023-04-01T02:05:35;7.73;;;1.80;;
37425;SDS011;23285;50.180;7.036;2023-04-01T02:08:27;6.67;;;1.70;;
37425;SDS011;23285;50.180;7.036;2023-04-01T02:11:18;9.27;;;2.40;;
37425;SDS011;23285;50.180;7.036;2023-04-01T02:14:10;7.13;;;1.97;;
37425;SDS011;23285;50.180;7.036;2023-04-01T02:16:59;6.57;;;1.90;;
37425;SDS011;23285;50.180;7.036;2023-04-01T02:19:48;7.50;;;2.03;;
37425;SDS011;23285;50.180;7.036;2023-04-01T02:22:37;5.20;;;1.70;;
37425;SDS011;23285;50.180;7.036;2023-04-01T02:25:28;5.53;;;1.87;;
37425;SDS011;23285;50.180;7.036;2023-04-01T02:28:17;8.00;;;1.83;;
37425;SDS011;23285;50.180;7.036;2023-04-01T02:31:05;6.90;;;1.80;;
37425;SDS011;23285;50.180;7.036;2023-04-01T02:33:52;6.40;;;2.00;;
37425;SDS011;23285;50.180;7.036;2023-04-01T02:36:39;5.43;;;1.50;;
37425;SDS011;23285;50.180;7.036;2023-04-01T02:39:26;4.83;;;1.40;;
37425;SDS011;23285;50.180;7.036;2023-04-01T02:42:13;5.27;;;1.50;;
37425;SDS011;23285;50.180;7.036;2023-04-01T02:45:01;5.00;;;1.83;;
37425;SDS011;23285;50.180;7.036;2023-04-01T02:47:48;6.00;;;1.47;;
37425;SDS011;23285;50.180;7.036;2023-04-01T02:50:34;5.27;;;1.63;;
37425;SDS011;23285;50.180;7.036;2023-04-01T02:53:20;3.60;;;1.47;;
37425;SDS011;23285;50.180;7.036;2023-04-01T02:56:07;4.63;;;1.47;;
37425;SDS011;23285;50.180;7.036;2023-04-01T02:58:53;3.00;;;1.40;;
37425;SDS011;23285;50.180;7.036;2023-04-01T03:01:41;8.67;;;1.63;;
37425;SDS011;23285;50.180;7.036;2023-04-01T03:04:27;7.10;;;1.80;;
37425;SDS011;23285;50.180;7.036;2023-04-01T03:07:14;2.83;;;1.43;;
37425;SDS011;23285;50.180;7.036;2023-04-01T03:10:00;2.73;;;1.07;;
37425;SDS011;23285;50.180;7.036;2023-04-01T03:12:47;5.50;;;1.33;;
37425;SDS011;23285;50.180;7.036;2023-04-01T03:15:34;4.83;;;1.37;;
37425;SDS011;23285;50.180;7.036;2023-04-01T03:18:22;4.83;;;1.63;;
37425;SDS011;23285;50.180;7.036;2023-04-01T03:21:13;5.30;;;1.40;;
37425;SDS011;23285;50.180;7.036;2023-04-01T03:23:59;4.90;;;1.40;;
37425;SDS011;23285;50.180;7.036;2023-04-01T03:26:47;4.33;;;1.53;;
37425;SDS011;23285;50.180;7.036;2023-04-01T03:29:34;2.83;;;1.17;;
37425;SDS011;23285;50.180;7.036;2023-04-01T03:32:21;4.47;;;1.40;;
37425;SDS011;23285;50.180;7.036;2023-04-01T03:35:09;2.47;;;1.20;;
37425;SDS011;23285;50.180;7.036;2023-04-01T03:37:56;5.17;;;1.50;;
37425;SDS011;23285;50.180;7.036;2023-04-01T03:40:42;4.53;;;1.40;;
37425;SDS011;23285;50.180;7.036;2023-04-01T03:43:29;3.43;;;1.20;;
37425;SDS011;23285;50.180;7.036;2023-04-01T03:46:17;3.40;;;1.10;;
37425;SDS011;23285;50.180;7.036;2023-04-01T03:49:06;5.23;;;1.23;;
37425;SDS011;23285;50.180;7.036;2023-04-01T03:51:57;3.87;;;1.00;;
37425;SDS011;23285;50.180;7.036;2023-04-01T03:54:44;2.03;;;1.40;;
37425;SDS011;23285;50.180;7.036;2023-04-01T03:57:30;4.90;;;1.60;;
37425;SDS011;23285;50.180;7.036;2023-04-01T04:00:22;6.73;;;1.53;;
37425;SDS011;23285;50.180;7.036;2023-04-01T04:03:13;3.33;;;1.10;;
37425;SDS011;23285;50.180;7.036;2023-04-01T04:05:59;3.60;;;1.30;;
37425;SDS011;23285;50.180;7.036;2023-04-01T04:08:48;5.30;;;1.70;;
37425;SDS011;23285;50.180;7.036;2023-04-01T04:11:34;2.40;;;1.10;;
37425;SDS011;23285;50.180;7.036;2023-04-01T04:14:21;5.07;;;1.50;;
37425;SDS011;23285;50.180;7.036;2023-04-01T04:17:09;2.33;;;1.00;;
37425;SDS011;23285;50.180;7.036;2023-04-01T04:20:00;5.00;;;1.20;;
37425;SDS011;23285;50.180;7.036;2023-04-01T04:22:47;3.20;;;0.90;;
37425;SDS011;23285;50.180;7.036;2023-04-01T04:25:35;3.47;;;1.20;;
37425;SDS011;23285;50.180;7.036;2023-04-01T04:28:22;3.53;;;1.20;;
37425;SDS011;23285;50.180;7.036;2023-04-01T04:31:09;2.43;;;1.10;;
37425;SDS011;23285;50.180;7.036;2023-04-01T04:33:55;1.03;;;0.83;;
37425;SDS011;23285;50.180;7.036;2023-04-01T04:36:42;3.77;;;1.03;;
37425;SDS011;23285;50.180;7.036;2023-04-01T04:39:29;5.23;;;1.20;;
37425;SDS011;23285;50.180;7.036;2023-04-01T04:42:17;2.40;;;0.90;;
37425;SDS011;23285;50.180;7.036;2023-04-01T04:45:04;2.67;;;0.93;;
37425;SDS011;23285;50.180;7.036;2023-04-01T04:47:50;1.97;;;1.00;;
37425;SDS011;23285;50.180;7.036;2023-04-01T04:50:37;3.70;;;1.00;;
37425;SDS011;23285;50.180;7.036;2023-04-01T04:53:25;2.10;;;1.07;;
37425;SDS011;23285;50.180;7.036;2023-04-01T04:56:11;2.00;;;0.90;;
37425;SDS011;23285;50.180;7.036;2023-04-01T04:59:07;5.20;;;1.30;;
37425;SDS011;23285;50.180;7.036;2023-04-01T05:02:03;1.93;;;0.90;;
37425;SDS011;23285;50.180;7.036;2023-04-01T05:04:49;3.03;;;1.17;;
37425;SDS011;23285;50.180;7.036;2023-04-01T05:07:36;1.70;;;0.90;;
37425;SDS011;23285;50.180;7.036;2023-04-01T05:10:23;5.03;;;1.10;;
37425;SDS011;23285;50.180;7.036;2023-04-01T05:13:09;1.37;;;0.80;;
37425;SDS011;23285;50.180;7.036;2023-04-01T05:15:58;1.73;;;0.70;;
37425;SDS011;23285;50.180;7.036;2023-04-01T05:18:44;1.63;;;0.80;;
37425;SDS011;23285;50.180;7.036;2023-04-01T05:21:31;3.60;;;1.20;;
37425;SDS011;23285;50.180;7.036;2023-04-01T05:24:17;1.50;;;0.87;;
37425;SDS011;23285;50.180;7.036;2023-04-01T05:27:04;0.93;;;0.73;;
37425;SDS011;23285;50.180;7.036;2023-04-01T05:29:53;0.77;;;0.60;;
37425;SDS011;23285;50.180;7.036;2023-04-01T05:32:58;1.63;;;1.20;;
37425;SDS011;23285;50.180;7.036;2023-04-01T05:35:45;1.57;;;0.80;;
37425;SDS011;23285;50.180;7.036;2023-04-01T05:38:32;1.73;;;0.83;;
37425;SDS011;23285;50.180;7.036;2023-04-01T05:41:19;2.50;;;0.70;;
37425;SDS011;23285;50.180;7.036;2023-04-01T05:44:05;1.90;;;1.30;;
37425;SDS011;23285;50.180;7.036;2023-04-01T05:46:57;1.23;;;0.83;;
37425;SDS011;23285;50.180;7.036;2023-04-01T05:49:46;1.87;;;0.90;;
37425;SDS011;23285;50.180;7.036;2023-04-01T05:52:33;0.90;;;0.80;;
37425;SDS011;23285;50.180;7.036;2023-04-01T05:55:19;2.37;;;0.80;;
37425;SDS011;23285;50.180;7.036;2023-04-01T05:58:06;0.70;;;0.70;;
37425;SDS011;23285;50.180;7.036;2023-04-01T06:00:59;1.70;;;0.90;;
37425;SDS011;23285;50.180;7.036;2023-04-01T06:03:46;2.10;;;0.87;;
37425;SDS011;23285;50.180;7.036;2023-04-01T06:06:34;1.17;;;0.77;;
37425;SDS011;23285;50.180;7.036;2023-04-01T06:09:27;2.53;;;0.70;;
37425;SDS011;23285;50.180;7.036;2023-04-01T06:12:17;2.27;;;0.70;;
37425;SDS011;23285;50.180;7.036;2023-04-01T06:15:23;0.80;;;0.80;;
37425;SDS011;23285;50.180;7.036;2023-04-01T06:18:30;1.03;;;0.80;;
37425;SDS011;23285;50.180;7.036;2023-04-01T06:21:40;0.63;;;0.63;;
37425;SDS011;23285;50.180;7.036;2023-04-01T06:24:44;1.20;;;0.70;;
37425;SDS011;23285;50.180;7.036;2023-04-01T06:27:47;1.30;;;0.70;;
37425;SDS011;23285;50.180;7.036;2023-04-01T06:30:42;0.60;;;0.60;;
37425;SDS011;23285;50.180;7.036;2023-04-01T06:33:35;0.70;;;0.70;;
37425;SDS011;23285;50.180;7.036;2023-04-01T06:36:48;2.03;;;0.70;;
37425;SDS011;23285;50.180;7.036;2023-04-01T06:39:59;1.10;;;0.80;;
37425;SDS011;23285;50.180;7.036;2023-04-01T06:42:58;0.70;;;0.70;;
37425;SDS011;23285;50.180;7.036;2023-04-01T06:46:06;0.60;;;0.60;;
37425;SDS011;23285;50.180;7.036;2023-04-01T06:49:33;0.50;;;0.50;;
37425;SDS011;23285;50.180;7.036;2023-04-01T06:52:47;0.53;;;0.53;;
37425;SDS011;23285;50.180;7.036;2023-04-01T06:55:59;1.70;;;0.60;;
37425;SDS011;23285;50.180;7.036;2023-04-01T06:58:58;2.07;;;0.90;;
37425;SDS011;23285;50.180;7.036;2023-04-01T07:01:45;0.93;;;0.50;;
37425;SDS011;23285;50.180;7.036;2023-04-01T07:04:34;0.70;;;0.70;;
37425;SDS011;23285;50.180;7.036;2023-04-01T07:07:24;0.60;;;0.60;;
37425;SDS011;23285;50.180;7.036;2023-04-01T07:10:23;1.00;;;0.70;;
37425;SDS011;23285;50.180;7.036;2023-04-01T07:13:31;0.93;;;0.57;;
37425;SDS011;23285;50.180;7.036;2023-04-01T07:16:29;1.10;;;0.63;;
37425;SDS011;23285;50.180;7.036;2023-04-01T07:19:18;0.80;;;0.60;;
37425;SDS011;23285;50.180;7.036;2023-04-01T07:22:21;1.07;;;0.57;;
37425;SDS011;23285;50.180;7.036;2023-04-01T07:25:37;0.50;;;0.50;;
37425;SDS011;23285;50.180;7.036;2023-04-01T07:28:50;0.70;;;0.70;;
37425;SDS011;23285;50.180;7.036;2023-04-01T07:32:06;0.50;;;0.50;;
37425;SDS011;23285;50.180;7.036;2023-04-01T07:35:08;0.50;;;0.50;;
37425;SDS011;23285;50.180;7.036;2023-04-01T07:38:04;1.03;;;0.60;;
37425;SDS011;23285;50.180;7.036;2023-04-01T07:40:57;2.53;;;0.90;;
37425;SDS011;23285;50.180;7.036;2023-04-01T07:43:54;0.77;;;0.77;;
37425;SDS011;23285;50.180;7.036;2023-04-01T07:46:53;0.73;;;0.73;;
37425;SDS011;23285;50.180;7.036;2023-04-01T07:49:51;1.00;;;0.90;;
37425;SDS011;23285;50.180;7.036;2023-04-01T07:52:41;0.77;;;0.77;;
37425;SDS011;23285;50.180;7.036;2023-04-01T07:55:41;1.90;;;1.00;;
37425;SDS011;23285;50.180;7.036;2023-04-01T07:58:31;0.93;;;0.83;;
37425;SDS011;23285;50.180;7.036;2023-04-01T08:01:23;2.63;;;1.00;;
37425;SDS011;23285;50.180;7.036;2023-04-01T08:04:20;0.80;;;0.80;;
37425;SDS011;23285;50.180;7.036;2023-04-01T08:07:10;0.80;;;0.80;;
37425;SDS011;23285;50.180;7.036;2023-04-01T08:10:09;0.70;;;0.70;;
37425;SDS011;23285;50.180;7.036;2023-04-01T08:13:20;0.80;;;0.80;;
37425;SDS011;23285;50.180;7.036;2023-04-01T08:16:34;0.80;;;0.80;;
37425;SDS011;23285;50.180;7.036;2023-04-01T08:19:31;0.67;;;0.67;;
37425;SDS011;23285;50.180;7.036;2023-04-01T08:22:22;0.70;;;0.70;;
37425;SDS011;23285;50.180;7.036;2023-04-01T08:25:11;0.67;;;0.67;;
37425;SDS011;23285;50.180;7.036;2023-04-01T08:28:00;1.73;;;0.80;;
37425;SDS011;23285;50.180;7.036;2023-04-01T08:30:51;1.73;;;0.90;;
37425;SDS011;23285;50.180;7.036;2023-04-01T08:33:43;2.37;;;0.80;;
37425;SDS011;23285;50.180;7.036;2023-04-01T08:36:32;0.80;;;0.80;;
37425;SDS011;23285;50.180;7.036;2023-04-01T08:39:34;0.87;;;0.80;;
37425;SDS011;23285;50.180;7.036;2023-04-01T08:42:40;1.27;;;0.67;;
37425;SDS011;23285;50.180;7.036;2023-04-01T08:45:39;0.67;;;0.67;;
37425;SDS011;23285;50.180;7.036;2023-04-01T08:48:38;2.10;;;0.70;;
37425;SDS011;23285;50.180;7.036;2023-04-01T08:51:37;0.60;;;0.60;;
37425;SDS011;23285;50.180;7.036;2023-04-01T08:54:46;1.30;;;0.80;;
37425;SDS011;23285;50.180;7.036;2023-04-01T08:58:06;0.80;;;0.80;;
37425;SDS011;23285;50.180;7.036;2023-04-01T09:01:24;0.80;;;0.80;;
37425;SDS011;23285;50.180;7.036;2023-04-01T09:04:26;2.63;;;0.80;;
37425;SDS011;23285;50.180;7.036;2023-04-01T09:07:29;0.80;;;0.80;;
37425;SDS011;23285;50.180;7.036;2023-04-01T09:10:34;1.20;;;1.10;;
37425;SDS011;23285;50.180;7.036;2023-04-01T09:14:23;1.30;;;0.80;;
37425;SDS011;23285;50.180;7.036;2023-04-01T09:17:45;1.50;;;1.20;;
37425;SDS011;23285;50.180;7.036;2023-04-01T09:27:14;1.40;;;1.30;;
37425;SDS011;23285;50.180;7.036;2023-04-01T09:37:17;1.47;;;1.20;;
37425;SDS011;23285;50.180;7.036;2023-04-01T09:40:17;1.27;;;1.17;;
37425;SDS011;23285;50.180;7.036;2023-04-01T09:43:29;1.27;;;1.17;;
37425;SDS011;23285;50.180;7.036;2023-04-01T09:46:40;1.60;;;1.50;;
37425;SDS011;23285;50.180;7.036;2023-04-01T09:49:41;1.57;;;1.20;;
37425;SDS011;23285;50.180;7.036;2023-04-01T09:52:38;1.50;;;1.37;;
37425;SDS011;23285;50.180;7.036;2023-04-01T09:55:55;1.53;;;1.40;;
37425;SDS011;23285;50.180;7.036;2023-04-01T09:59:37;1.10;;;1.10;;
37425;SDS011;23285;50.180;7.036;2023-04-01T10:03:07;2.03;;;1.23;;
37425;SDS011;23285;50.180;7.036;2023-04-01T10:13:04;0.90;;;0.90;;
37425;SDS011;23285;50.180;7.036;2023-04-01T10:16:21;0.80;;;0.80;;
37425;SDS011;23285;50.180;7.036;2023-04-01T10:25:45;0.80;;;0.80;;
37425;SDS011;23285;50.180;7.036;2023-04-01T10:28:54;0.80;;;0.80;;
37425;SDS011;23285;50.180;7.036;2023-04-01T10:35:38;1.30;;;0.93;;
37425;SDS011;23285;50.180;7.036;2023-04-01T10:38:53;1.10;;;0.93;;
37425;SDS011;23285;50.180;7.036;2023-04-01T10:46:05;1.07;;;0.80;;
37425;SDS011;23285;50.180;7.036;2023-04-01T10:49:12;1.00;;;0.77;;
37425;SDS011;23285;50.180;7.036;2023-04-01T10:55:53;0.90;;;0.80;;
37425;SDS011;23285;50.180;7.036;2023-04-01T10:59:36;0.70;;;0.70;;
37425;SDS011;23285;50.180;7.036;2023-04-01T11:09:32;0.90;;;0.90;;
37425;SDS011;23285;50.180;7.036;2023-04-01T11:12:39;1.47;;;0.70;;
37425;SDS011;23285;50.180;7.036;2023-04-01T11:16:01;1.03;;;0.70;;
37425;SDS011;23285;50.180;7.036;2023-04-01T11:19:31;1.73;;;0.70;;
37425;SDS011;23285;50.180;7.036;2023-04-01T11:22:24;0.60;;;0.60;;
37425;SDS011;23285;50.180;7.036;2023-04-01T11:29:03;0.60;;;0.60;;
37425;SDS011;23285;50.180;7.036;2023-04-01T11:31:54;0.70;;;0.70;;
37425;SDS011;23285;50.180;7.036;2023-04-01T11:34:52;0.80;;;0.80;;
37425;SDS011;23285;50.180;7.036;2023-04-01T11:37:44;0.77;;;0.77;;
37425;SDS011;23285;50.180;7.036;2023-04-01T11:41:02;1.07;;;0.90;;
37425;SDS011;23285;50.180;7.036;2023-04-01T11:44:10;0.70;;;0.70;;
37425;SDS011;23285;50.180;7.036;2023-04-01T11:47:22;0.77;;;0.73;;
37425;SDS011;23285;50.180;7.036;2023-04-01T11:50:37;0.70;;;0.70;;
37425;SDS011;23285;50.180;7.036;2023-04-01T11:53:28;0.70;;;0.70;;
37425;SDS011;23285;50.180;7.036;2023-04-01T11:56:27;0.60;;;0.60;;
37425;SDS011;23285;50.180;7.036;2023-04-01T11:59:35;1.07;;;0.70;;
37425;SDS011;23285;50.180;7.036;2023-04-01T12:02:40;0.63;;;0.63;;
37425;SDS011;23285;50.180;7.036;2023-04-01T12:05:37;0.60;;;0.60;;
37425;SDS011;23285;50.180;7.036;2023-04-01T12:08:28;0.70;;;0.70;;
37425;SDS011;23285;50.180;7.036;2023-04-01T12:11:24;0.80;;;0.80;;
37425;SDS011;23285;50.180;7.036;2023-04-01T12:14:16;0.60;;;0.60;;
37425;SDS011;23285;50.180;7.036;2023-04-01T12:17:09;1.03;;;0.70;;
37425;SDS011;23285;50.180;7.036;2023-04-01T12:19:58;0.50;;;0.50;;
37425;SDS011;23285;50.180;7.036;2023-04-01T12:22:48;0.67;;;0.67;;
37425;SDS011;23285;50.180;7.036;2023-04-01T12:28:46;0.80;;;0.80;;
37425;SDS011;23285;50.180;7.036;2023-04-01T12:31:42;1.67;;;0.90;;
37425;SDS011;23285;50.180;7.036;2023-04-01T12:34:45;0.60;;;0.60;;
37425;SDS011;23285;50.180;7.036;2023-04-01T12:37:45;0.60;;;0.60;;
37425;SDS011;23285;50.180;7.036;2023-04-01T12:40:40;0.57;;;0.57;;
37425;SDS011;23285;50.180;7.036;2023-04-01T12:46:38;0.70;;;0.70;;
37425;SDS011;23285;50.180;7.036;2023-04-01T12:52:34;0.60;;;0.60;;
37425;SDS011;23285;50.180;7.036;2023-04-01T12:55:37;1.23;;;0.80;;
37425;SDS011;23285;50.180;7.036;2023-04-01T12:58:38;0.50;;;0.50;;
37425;SDS011;23285;50.180;7.036;2023-04-01T13:01:28;0.80;;;0.80;;
37425;SDS011;23285;50.180;7.036;2023-04-01T13:10:53;0.93;;;0.90;;
37425;SDS011;23285;50.180;7.036;2023-04-01T13:13:48;1.23;;;0.90;;
37425;SDS011;23285;50.180;7.036;2023-04-01T13:16:40;1.17;;;0.80;;
37425;SDS011;23285;50.180;7.036;2023-04-01T13:19:34;0.80;;;0.80;;
37425;SDS011;23285;50.180;7.036;2023-04-01T13:22:23;0.93;;;0.90;;
37425;SDS011;23285;50.180;7.036;2023-04-01T13:25:14;0.90;;;0.90;;
37425;SDS011;23285;50.180;7.036;2023-04-01T13:28:14;0.90;;;0.90;;
37425;SDS011;23285;50.180;7.036;2023-04-01T13:31:07;1.17;;;0.70;;
37425;SDS011;23285;50.180;7.036;2023-04-01T13:34:12;1.00;;;0.90;;
37425;SDS011;23285;50.180;7.036;2023-04-01T13:37:13;0.90;;;0.90;;
37425;SDS011;23285;50.180;7.036;2023-04-01T13:40:24;1.07;;;1.03;;
37425;SDS011;23285;50.180;7.036;2023-04-01T13:43:14;0.90;;;0.90;;
37425;SDS011;23285;50.180;7.036;2023-04-01T13:49:08;0.73;;;0.70;;
37425;SDS011;23285;50.180;7.036;2023-04-01T13:52:04;1.27;;;0.70;;
37425;SDS011;23285;50.180;7.036;2023-04-01T13:55:19;0.60;;;0.60;;
37425;SDS011;23285;50.180;7.036;2023-04-01T13:58:19;0.70;;;0.70;;
37425;SDS011;23285;50.180;7.036;2023-04-01T14:01:15;0.80;;;0.80;;
37425;SDS011;23285;50.180;7.036;2023-04-01T14:04:28;1.60;;;0.80;;
37425;SDS011;23285;50.180;7.036;2023-04-01T14:10:28;1.00;;;0.90;;
37425;SDS011;23285;50.180;7.036;2023-04-01T14:13:26;1.43;;;0.90;;
37425;SDS011;23285;50.180;7.036;2023-04-01T14:20:13;0.90;;;0.90;;
37425;SDS011;23285;50.180;7.036;2023-04-01T14:23:13;0.70;;;0.70;;
37425;SDS011;23285;50.180;7.036;2023-04-01T14:29:30;1.53;;;0.70;;
37425;SDS011;23285;50.180;7.036;2023-04-01T14:32:27;0.83;;;0.83;;
37425;SDS011;23285;50.180;7.036;2023-04-01T14:35:29;2.20;;;0.73;;
37425;SDS011;23285;50.180;7.036;2023-04-01T14:41:40;1.10;;;1.00;;
37425;SDS011;23285;50.180;7.036;2023-04-01T14:44:44;0.90;;;0.90;;
37425;SDS011;23285;50.180;7.036;2023-04-01T14:47:46;0.90;;;0.90;;
37425;SDS011;23285;50.180;7.036;2023-04-01T14:50:40;1.37;;;0.90;;
37425;SDS011;23285;50.180;7.036;2023-04-01T14:53:29;0.80;;;0.80;;
37425;SDS011;23285;50.180;7.036;2023-04-01T14:56:34;0.90;;;0.90;;
37425;SDS011;23285;50.180;7.036;2023-04-01T14:59:28;0.90;;;0.90;;
37425;SDS011;23285;50.180;7.036;2023-04-01T15:02:29;0.93;;;0.90;;
37425;SDS011;23285;50.180;7.036;2023-04-01T15:05:37;0.80;;;0.80;;
37425;SDS011;23285;50.180;7.036;2023-04-01T15:08:25;0.90;;;0.90;;
37425;SDS011;23285;50.180;7.036;2023-04-01T15:11:25;2.03;;;1.10;;
37425;SDS011;23285;50.180;7.036;2023-04-01T15:14:28;0.90;;;0.90;;
37425;SDS011;23285;50.180;7.036;2023-04-01T15:17:41;1.10;;;1.00;;
37425;SDS011;23285;50.180;7.036;2023-04-01T15:20:43;1.30;;;1.20;;
37425;SDS011;23285;50.180;7.036;2023-04-01T15:23:37;1.40;;;1.17;;
37425;SDS011;23285;50.180;7.036;2023-04-01T15:26:33;1.87;;;1.40;;
37425;SDS011;23285;50.180;7.036;2023-04-01T15:29:36;2.43;;;1.37;;
37425;SDS011;23285;50.180;7.036;2023-04-01T15:32:40;3.27;;;1.20;;
37425;SDS011;23285;50.180;7.036;2023-04-01T15:35:33;1.20;;;1.20;;
37425;SDS011;23285;50.180;7.036;2023-04-01T15:38:24;1.10;;;1.10;;
37425;SDS011;23285;50.180;7.036;2023-04-01T15:41:14;1.10;;;1.10;;
37425;SDS011;23285;50.180;7.036;2023-04-01T15:44:01;1.87;;;1.10;;
37425;SDS011;23285;50.180;7.036;2023-04-01T15:46:48;0.90;;;0.90;;
37425;SDS011;23285;50.180;7.036;2023-04-01T15:49:37;1.30;;;1.20;;
37425;SDS011;23285;50.180;7.036;2023-04-01T15:52:34;1.00;;;0.93;;
37425;SDS011;23285;50.180;7.036;2023-04-01T15:55:22;0.97;;;0.97;;
37425;SDS011;23285;50.180;7.036;2023-04-01T15:58:24;1.03;;;1.03;;
37425;SDS011;23285;50.180;7.036;2023-04-01T16:01:26;1.93;;;1.30;;
37425;SDS011;23285;50.180;7.036;2023-04-01T16:04:34;1.40;;;1.30;;
37425;SDS011;23285;50.180;7.036;2023-04-01T16:10:44;1.77;;;1.50;;
37425;SDS011;23285;50.180;7.036;2023-04-01T16:13:37;1.57;;;1.47;;
37425;SDS011;23285;50.180;7.036;2023-04-01T16:16:36;0.97;;;0.97;;
37425;SDS011;23285;50.180;7.036;2023-04-01T16:19:33;1.03;;;1.00;;
37425;SDS011;23285;50.180;7.036;2023-04-01T16:22:29;1.10;;;0.90;;
37425;SDS011;23285;50.180;7.036;2023-04-01T16:25:20;0.90;;;0.90;;
37425;SDS011;23285;50.180;7.036;2023-04-01T16:28:15;0.83;;;0.83;;
37425;SDS011;23285;50.180;7.036;2023-04-01T16:31:07;1.00;;;1.00;;
37425;SDS011;23285;50.180;7.036;2023-04-01T16:34:01;1.97;;;1.17;;
37425;SDS011;23285;50.180;7.036;2023-04-01T16:36:54;0.90;;;0.90;;
37425;SDS011;23285;50.180;7.036;2023-04-01T16:39:47;1.20;;;1.10;;
37425;SDS011;23285;50.180;7.036;2023-04-01T16:42:40;0.90;;;0.90;;
37425;SDS011;23285;50.180;7.036;2023-04-01T16:45:33;1.20;;;1.10;;
37425;SDS011;23285;50.180;7.036;2023-04-01T16:48:25;1.20;;;1.20;;
37425;SDS011;23285;50.180;7.036;2023-04-01T16:51:14;1.10;;;1.10;;
37425;SDS011;23285;50.180;7.036;2023-04-01T16:54:03;1.20;;;1.10;;
37425;SDS011;23285;50.180;7.036;2023-04-01T16:56:55;1.13;;;1.13;;
37425;SDS011;23285;50.180;7.036;2023-04-01T16:59:54;1.17;;;1.17;;
37425;SDS011;23285;50.180;7.036;2023-04-01T17:02:47;1.40;;;1.30;;
37425;SDS011;23285;50.180;7.036;2023-04-01T17:05:39;1.10;;;1.10;;
37425;SDS011;23285;50.180;7.036;2023-04-01T17:08:40;0.90;;;0.90;;
37425;SDS011;23285;50.180;7.036;2023-04-01T17:11:37;1.30;;;1.20;;
37425;SDS011;23285;50.180;7.036;2023-04-01T17:14:28;1.13;;;1.03;;
37425;SDS011;23285;50.180;7.036;2023-04-01T17:17:24;1.30;;;1.20;;
37425;SDS011;23285;50.180;7.036;2023-04-01T17:23:36;1.10;;;1.10;;
37425;SDS011;23285;50.180;7.036;2023-04-01T17:26:30;0.90;;;0.90;;
37425;SDS011;23285;50.180;7.036;2023-04-01T17:29:23;1.10;;;1.00;;
37425;SDS011;23285;50.180;7.036;2023-04-01T17:32:16;2.90;;;1.20;;
37425;SDS011;23285;50.180;7.036;2023-04-01T17:35:13;0.97;;;0.97;;
37425;SDS011;23285;50.180;7.036;2023-04-01T17:38:06;0.90;;;0.90;;
37425;SDS011;23285;50.180;7.036;2023-04-01T17:41:03;1.10;;;1.00;;
37425;SDS011;23285;50.180;7.036;2023-04-01T17:43:52;0.87;;;0.87;;
37425;SDS011;23285;50.180;7.036;2023-04-01T17:47:05;1.07;;;1.03;;
37425;SDS011;23285;50.180;7.036;2023-04-01T17:50:02;1.13;;;1.03;;
37425;SDS011;23285;50.180;7.036;2023-04-01T17:53:11;1.20;;;1.10;;
37425;SDS011;23285;50.180;7.036;2023-04-01T17:56:07;1.60;;;1.10;;
37425;SDS011;23285;50.180;7.036;2023-04-01T17:58:59;0.80;;;0.80;;
37425;SDS011;23285;50.180;7.036;2023-04-01T18:01:54;0.90;;;0.90;;
37425;SDS011;23285;50.180;7.036;2023-04-01T18:04:54;1.03;;;0.97;;
37425;SDS011;23285;50.180;7.036;2023-04-01T18:07:51;0.77;;;0.77;;
37425;SDS011;23285;50.180;7.036;2023-04-01T18:10:51;1.00;;;0.90;;
37425;SDS011;23285;50.180;7.036;2023-04-01T18:14:03;0.90;;;0.90;;
37425;SDS011;23285;50.180;7.036;2023-04-01T18:17:00;0.70;;;0.70;;
37425;SDS011;23285;50.180;7.036;2023-04-01T18:20:11;0.80;;;0.80;;
37425;SDS011;23285;50.180;7.036;2023-04-01T18:23:09;0.70;;;0.70;;
37425;SDS011;23285;50.180;7.036;2023-04-01T18:26:02;0.70;;;0.70;;
37425;SDS011;23285;50.180;7.036;2023-04-01T18:28:52;1.10;;;1.00;;
37425;SDS011;23285;50.180;7.036;2023-04-01T18:31:43;1.77;;;0.70;;
37425;SDS011;23285;50.180;7.036;2023-04-01T18:34:38;0.60;;;0.60;;
37425;SDS011;23285;50.180;7.036;2023-04-01T18:37:36;0.80;;;0.80;;
37425;SDS011;23285;50.180;7.036;2023-04-01T18:40:25;0.80;;;0.70;;
37425;SDS011;23285;50.180;7.036;2023-04-01T18:43:16;2.77;;;0.80;;
37425;SDS011;23285;50.180;7.036;2023-04-01T18:46:05;1.00;;;0.90;;
37425;SDS011;23285;50.180;7.036;2023-04-01T18:49:00;0.63;;;0.63;;
37425;SDS011;23285;50.180;7.036;2023-04-01T18:51:54;0.80;;;0.80;;
37425;SDS011;23285;50.180;7.036;2023-04-01T18:54:44;0.70;;;0.70;;
37425;SDS011;23285;50.180;7.036;2023-04-01T18:57:38;0.80;;;0.80;;
37425;SDS011;23285;50.180;7.036;2023-04-01T19:00:27;1.53;;;1.10;;
37425;SDS011;23285;50.180;7.036;2023-04-01T19:03:16;0.83;;;0.83;;
37425;SDS011;23285;50.180;7.036;2023-04-01T19:06:14;0.83;;;0.83;;
37425;SDS011;23285;50.180;7.036;2023-04-01T19:09:22;1.33;;;0.83;;
37425;SDS011;23285;50.180;7.036;2023-04-01T19:12:15;0.80;;;0.80;;